Time;durP1;ratioP1;P1;durP2;ratioP2;P2;SDS_P1;SDS_P2;PMS_P1;PMS_P2;Temp;Humidity;BMP_temperature;BMP_pressure;BME280_temperature;BME280_humidity;BME280_pressure;Samples;Min_cycle;Max_cycle;Signal;HPM_P1;HPM_P2
2023/09/29 00:01:27;;;;;;;;;;;;;;;16.08;nan;100475.75;5056618;28;20441;-85
2023/09/29 00:03:53;;;;;;;;;;;;;;;16.05;nan;100476.94;5053158;28;20003;-85
2023/09/29 00:06:19;;;;;;;;;;;;;;;15.98;nan;100489.38;5050925;28;19917;-85
2023/09/29 00:08:45;;;;;;;;;;;;;;;15.92;nan;100477.66;5046051;28;19951;-85
2023/09/29 00:11:12;;;;;;;;;;;;;;;;;;5049780;28;20003;-85
2023/09/29 00:13:38;;;;;;;;;;;;;;;15.82;nan;100471.75;5054404;28;19966;-83
2023/09/29 00:16:03;;;;;;;;;;;;;;;;;;5042089;28;19928;-84
2023/09/29 00:18:30;;;;;;;;;;;;;;;15.75;nan;100480.69;5052556;28;19912;-84
2023/09/29 00:20:55;;;;;;;;;;;;;;;15.73;nan;100461.41;5056893;28;19913;-84
2023/09/29 00:23:20;;;;;;;;;;;;;;;15.69;nan;100479.59;5062459;28;20395;-85
2023/09/29 00:25:45;;;;;;;;;;;;;;;15.65;nan;100471.13;5043187;28;19970;-85
2023/09/29 00:28:10;;;;;;;;;;;;;;;15.63;nan;100478.47;5051981;28;19943;-85
2023/09/29 00:30:36;;;;;;;;;;;;;;;15.60;nan;100478.84;5057414;28;19913;-85
2023/09/29 00:33:03;;;;;;;;;;;;;;;15.60;nan;100473.53;5059497;28;19913;-85
2023/09/29 00:35:28;;;;;;;;;;;;;;;15.63;nan;100483.81;5056633;28;20068;-84
2023/09/29 00:37:54;;;;;;;;;;;;;;;15.65;nan;100491.63;5047814;28;19970;-85
2023/09/29 00:40:19;;;;;;;;;;;;;;;15.68;nan;100480.59;5045421;28;19917;-84
2023/09/29 00:42:46;;;;;;;;;;;;;;;15.69;nan;100482.25;5057892;28;19923;-85
2023/09/29 00:45:12;;;;;;;;;;;;;;;15.74;nan;100484.41;5057353;28;19912;-85
2023/09/29 00:47:37;;;;;;;;;;;;;;;;;;5054307;28;19920;-85
2023/09/29 00:50:04;;;;;;;;;;;;;;;15.82;nan;100482.44;5044016;28;20108;-83
2023/09/29 00:52:30;;;;;;;;;;;;;;;15.85;nan;100492.75;5025856;28;20010;-86
2023/09/29 00:54:57;;;;;;;;;;;;;;;15.90;nan;100474.34;5042056;28;19913;-84
2023/09/29 00:57:22;;;;;;;;;;;;;;;15.93;nan;100468.63;5032354;28;19917;-89
2023/09/29 00:59:51;;;;;;;;;;;;;;;15.96;nan;100467.41;5046279;28;19917;-86
2023/09/29 01:02:17;;;;;;;;;;;;;;;15.99;nan;100472.34;5052741;28;19913;-88
2023/09/29 01:04:42;;;;;;;;;;;;;;;16.00;nan;100468.69;5031527;28;19935;-86
2023/09/29 01:07:08;;;;;;;;;;;;;;;15.97;nan;100473.56;5034301;28;19917;-83
2023/09/29 01:09:33;;;;;;;;;;;;;;;15.90;nan;100463.66;5027147;28;19912;-83
2023/09/29 01:12:00;;;;;;;;;;;;;;;15.86;nan;100461.56;5037642;28;20412;-84
2023/09/29 01:14:25;;;;;;;;;;;;;;;15.85;nan;100450.06;5028315;28;20062;-83
2023/09/29 01:16:50;;;;;;;;;;;;;;;15.86;nan;100445.56;5054217;28;19940;-83
2023/09/29 01:19:16;;;;;;;;;;;;;;;;;;5036106;28;20327;-84
2023/09/29 01:21:46;;;;;;;;;;;;;;;15.88;nan;100444.34;5053473;28;19917;-84
2023/09/29 01:24:11;;;;;;;;;;;;;;;15.86;nan;100451.72;5053463;28;19916;-83
2023/09/29 01:26:36;;;;;;;;;;;;;;;;;;5053716;28;20003;-83
2023/09/29 01:29:01;;;;;;;;;;;;;;;;;;5038663;28;19924;-83
2023/09/29 01:31:27;;;;;;;;;;;;;;;15.69;nan;100445.75;5054688;28;19927;-83
2023/09/29 01:33:52;;;;;;;;;;;;;;;15.65;nan;100446.31;5046687;28;19916;-84
2023/09/29 01:36:17;;;;;;;;;;;;;;;15.61;nan;100448.53;5056065;28;19919;-84
2023/09/29 01:38:42;;;;;;;;;;;;;;;15.59;nan;100449.72;5057153;28;19912;-83
2023/09/29 01:41:08;;;;;;;;;;;;;;;15.56;nan;100447.44;5038368;28;19932;-84
2023/09/29 01:43:34;;;;;;;;;;;;;;;15.55;nan;100472.44;5057514;28;19912;-84
2023/09/29 01:46:00;;;;;;;;;;;;;;;15.53;nan;100461.13;5056875;28;19920;-87
2023/09/29 01:48:25;;;;;;;;;;;;;;;;;;5025404;28;20342;-87
2023/09/29 01:50:50;;;;;;;;;;;;;;;15.53;nan;100461.94;5048769;28;19963;-84
2023/09/29 01:53:15;;;;;;;;;;;;;;;15.57;nan;100468.56;5025809;28;19913;-86
2023/09/29 01:55:41;;;;;;;;;;;;;;;15.59;nan;100457.69;5047947;28;19919;-82
2023/09/29 01:58:09;;;;;;;;;;;;;;;15.60;nan;100456.72;5055883;28;19913;-86
2023/09/29 02:00:34;;;;;;;;;;;;;;;15.58;nan;100464.06;5022789;28;20325;-85
2023/09/29 02:03:00;;;;;;;;;;;;;;;15.55;nan;100459.13;5019945;28;19913;-82
2023/09/29 02:05:26;;;;;;;;;;;;;;;15.50;nan;100454.34;5045074;28;19912;-86
2023/09/29 02:07:51;;;;;;;;;;;;;;;15.49;nan;100466.00;5054368;28;19959;-86
2023/09/29 02:10:20;;;;;;;;;;;;;;;15.52;nan;100454.97;5044698;28;19913;-85
2023/09/29 02:12:56;;;;;;;;;;;;;;;15.58;nan;100458.72;5048543;28;19920;-82
2023/09/29 02:15:21;;;;;;;;;;;;;;;15.63;nan;100461.66;5056862;28;19920;-83
2023/09/29 02:17:48;;;;;;;;;;;;;;;15.67;nan;100457.63;5056490;28;20397;-84
2023/09/29 02:20:21;;;;;;;;;;;;;;;15.71;nan;100445.59;5038287;28;19920;-84
2023/09/29 02:22:47;;;;;;;;;;;;;;;15.75;nan;100443.38;5039768;28;19959;-84
2023/09/29 02:25:14;;;;;;;;;;;;;;;;;;5059393;28;20000;-83
2023/09/29 02:27:40;;;;;;;;;;;;;;;15.78;nan;100427.00;5040932;28;19912;-84
2023/09/29 02:30:08;;;;;;;;;;;;;;;15.75;nan;100433.53;5055256;28;19913;-83
2023/09/29 02:32:34;;;;;;;;;;;;;;;15.67;nan;100436.28;5052629;28;19924;-84
2023/09/29 02:34:59;;;;;;;;;;;;;;;15.62;nan;100438.69;5041087;28;19916;-84
2023/09/29 02:37:24;;;;;;;;;;;;;;;15.57;nan;100430.44;5057857;28;19935;-83
2023/09/29 02:39:50;;;;;;;;;;;;;;;15.51;nan;100443.47;5058337;28;19920;-83
2023/09/29 02:42:15;;;;;;;;;;;;;;;;;;5058737;28;19914;-84
2023/09/29 02:44:40;;;;;;;;;;;;;;;;;;5058894;28;19984;-83
2023/09/29 02:47:05;;;;;;;;;;;;;;;;;;5039153;28;20409;-84
2023/09/29 02:49:33;;;;;;;;;;;;;;;15.54;nan;100441.44;5040551;28;19913;-83
2023/09/29 02:51:58;;;;;;;;;;;;;;;15.61;nan;100431.69;5039596;28;19921;-84
2023/09/29 02:54:25;;;;;;;;;;;;;;;15.70;nan;100446.59;5055912;28;20389;-84
2023/09/29 02:56:50;;;;;;;;;;;;;;;;;;5041933;28;19944;-84
2023/09/29 02:59:16;;;;;;;;;;;;;;;;;;5041051;28;19943;-84
2023/09/29 03:01:44;;;;;;;;;;;;;;;15.92;nan;100448.31;5040689;28;19912;-84
2023/09/29 03:04:12;;;;;;;;;;;;;;;16.00;nan;100473.22;5041050;28;19928;-84
2023/09/29 03:06:37;;;;;;;;;;;;;;;16.06;nan;100467.09;5056707;28;19913;-84
2023/09/29 03:09:03;;;;;;;;;;;;;;;16.09;nan;100477.41;5057439;28;19932;-83
2023/09/29 03:11:28;;;;;;;;;;;;;;;16.09;nan;100480.09;5058930;28;19921;-84
2023/09/29 03:13:54;;;;;;;;;;;;;;;;;;5050424;28;19936;-84
2023/09/29 03:16:20;;;;;;;;;;;;;;;16.09;nan;100475.56;5052419;28;19917;-83
2023/09/29 03:18:46;;;;;;;;;;;;;;;16.09;nan;100478.22;5053343;28;19913;-84
2023/09/29 03:21:11;;;;;;;;;;;;;;;16.12;nan;100479.69;5049959;28;19919;-84
2023/09/29 03:23:37;;;;;;;;;;;;;;;16.16;nan;100472.97;5038343;28;20347;-84
2023/09/29 03:26:03;;;;;;;;;;;;;;;16.22;nan;100471.38;5036138;28;19913;-84
2023/09/29 03:28:28;;;;;;;;;;;;;;;16.24;nan;100480.84;5035367;28;19913;-85
2023/09/29 03:30:54;;;;;;;;;;;;;;;16.28;nan;100470.59;5026427;28;19920;-84
2023/09/29 03:33:19;;;;;;;;;;;;;;;16.31;nan;100486.25;5047569;28;20047;-84
2023/09/29 03:35:46;;;;;;;;;;;;;;;16.37;nan;100468.63;5054631;28;19944;-83
2023/09/29 03:38:14;;;;;;;;;;;;;;;16.39;nan;100483.44;5039358;28;19977;-84
2023/09/29 03:40:39;;;;;;;;;;;;;;;16.41;nan;100481.41;5058279;28;19913;-84
2023/09/29 03:43:05;;;;;;;;;;;;;;;;;;5040648;28;19920;-84
2023/09/29 03:45:30;;;;;;;;;;;;;;;16.40;nan;100485.13;5039760;28;19920;-84
2023/09/29 03:47:56;;;;;;;;;;;;;;;16.42;nan;100487.56;5040470;28;19944;-84
2023/09/29 03:50:21;;;;;;;;;;;;;;;16.42;nan;100490.25;5057994;28;19928;-83
2023/09/29 03:52:46;;;;;;;;;;;;;;;16.42;nan;100476.91;5041030;28;19917;-83
2023/09/29 03:55:12;;;;;;;;;;;;;;;16.41;nan;100497.44;5059511;28;19932;-84
2023/09/29 03:57:38;;;;;;;;;;;;;;;16.41;nan;100497.44;5041892;28;19935;-83
2023/09/29 04:00:06;;;;;;;;;;;;;;;16.40;nan;100495.78;5041262;28;19920;-84
2023/09/29 04:02:31;;;;;;;;;;;;;;;16.40;nan;100487.78;5041184;28;19913;-84
2023/09/29 04:04:58;;;;;;;;;;;;;;;16.43;nan;100495.41;5050800;28;19913;-84
2023/09/29 04:07:24;;;;;;;;;;;;;;;16.48;nan;100585.56;5059556;28;19971;-84
2023/09/29 04:09:49;;;;;;;;;;;;;;;16.51;nan;100475.75;5059747;28;20344;-84
2023/09/29 04:12:14;;;;;;;;;;;;;;;16.54;nan;100470.03;5058674;28;19917;-84
2023/09/29 04:14:39;;;;;;;;;;;;;;;16.56;nan;100476.00;5047488;28;19941;-84
2023/09/29 04:17:04;;;;;;;;;;;;;;;16.55;nan;100483.19;5039026;28;19928;-85
2023/09/29 04:19:29;;;;;;;;;;;;;;;16.55;nan;100482.38;5048561;28;19913;-85
2023/09/29 04:21:55;;;;;;;;;;;;;;;16.58;nan;100492.66;5036507;28;19919;-84
2023/09/29 04:24:20;;;;;;;;;;;;;;;16.60;nan;100485.28;5046454;28;19913;-84
2023/09/29 04:26:45;;;;;;;;;;;;;;;16.62;nan;100488.59;5045604;28;19945;-83
2023/09/29 04:29:10;;;;;;;;;;;;;;;16.63;nan;100490.22;5035743;28;19913;-85
2023/09/29 04:31:36;;;;;;;;;;;;;;;16.62;nan;100493.09;5056740;28;19983;-83
2023/09/29 04:34:01;;;;;;;;;;;;;;;16.56;nan;100497.34;5054981;28;19925;-85
2023/09/29 04:36:26;;;;;;;;;;;;;;;16.53;nan;100484.41;5061178;28;20475;-85
2023/09/29 04:38:51;;;;;;;;;;;;;;;16.49;nan;100494.66;5053274;28;19909;-84
2023/09/29 04:41:17;;;;;;;;;;;;;;;16.46;nan;100484.31;5028970;28;19980;-85
2023/09/29 04:43:44;;;;;;;;;;;;;;;16.46;nan;100494.19;5028146;28;20318;-83
2023/09/29 04:46:09;;;;;;;;;;;;;;;16.46;nan;100495.00;5046412;28;19920;-84
2023/09/29 04:48:34;;;;;;;;;;;;;;;16.48;nan;100497.50;5051426;28;19913;-83
2023/09/29 04:50:59;;;;;;;;;;;;;;;16.51;nan;100495.25;5037039;28;19913;-86
2023/09/29 04:53:24;;;;;;;;;;;;;;;16.55;nan;100503.72;5029450;28;20321;-85
2023/09/29 04:55:51;;;;;;;;;;;;;;;16.55;nan;100483.19;5035020;28;20414;-85
2023/09/29 04:58:16;;;;;;;;;;;;;;;16.53;nan;100495.91;5037706;28;19913;-85
2023/09/29 05:00:42;;;;;;;;;;;;;;;16.53;nan;100485.22;5063789;28;19948;-84
2023/09/29 05:03:07;;;;;;;;;;;;;;;16.56;nan;100500.88;5045894;28;19913;-84
2023/09/29 05:05:33;;;;;;;;;;;;;;;16.61;nan;100491.44;5061617;28;19923;-84
2023/09/29 05:07:58;;;;;;;;;;;;;;;16.61;nan;100481.56;5030084;28;19924;-85
2023/09/29 05:10:24;;;;;;;;;;;;;;;16.63;nan;100478.72;5029202;28;19913;-83
2023/09/29 05:12:49;;;;;;;;;;;;;;;16.64;nan;100475.88;5035468;28;19928;-83
2023/09/29 05:15:14;;;;;;;;;;;;;;;16.68;nan;100471.78;5062150;28;19908;-84
2023/09/29 05:17:39;;;;;;;;;;;;;;;16.70;nan;100483.09;5056246;28;19917;-83
2023/09/29 05:20:05;;;;;;;;;;;;;;;;;;5038605;28;19912;-84
2023/09/29 05:22:31;;;;;;;;;;;;;;;16.68;nan;100482.47;5038667;28;19992;-82
2023/09/29 05:24:56;;;;;;;;;;;;;;;16.67;nan;100480.00;5039051;28;19917;-84
2023/09/29 05:27:22;;;;;;;;;;;;;;;16.66;nan;100489.88;5053529;28;19917;-84
2023/09/29 05:29:47;;;;;;;;;;;;;;;16.69;nan;100483.31;5033770;28;20330;-85
2023/09/29 05:32:12;;;;;;;;;;;;;;;16.69;nan;100468.09;5066957;28;20082;-85
2023/09/29 05:34:37;;;;;;;;;;;;;;;16.72;nan;100472.22;5050231;28;19924;-84
2023/09/29 05:37:03;;;;;;;;;;;;;;;16.76;nan;100490.34;5048207;28;19916;-85
2023/09/29 05:39:28;;;;;;;;;;;;;;;16.81;nan;100475.63;5046731;28;20017;-85
2023/09/29 05:41:53;;;;;;;;;;;;;;;16.85;nan;100491.06;5064526;28;19920;-84
2023/09/29 05:44:18;;;;;;;;;;;;;;;16.87;nan;100491.69;5052372;28;19934;-85
2023/09/29 05:46:44;;;;;;;;;;;;;;;16.90;nan;100495.81;5035454;28;19924;-84
2023/09/29 05:49:09;;;;;;;;;;;;;;;16.96;nan;100490.53;5049542;28;19923;-85
2023/09/29 05:51:35;;;;;;;;;;;;;;;17.07;nan;100507.88;5050035;28;19929;-84
2023/09/29 05:54:02;;;;;;;;;;;;;;;17.19;nan;100505.50;5054363;28;19988;-84
2023/09/29 05:56:29;;;;;;;;;;;;;;;17.30;nan;100522.81;5057803;28;19924;-83
2023/09/29 05:58:55;;;;;;;;;;;;;;;17.37;nan;100524.50;5043861;28;19948;-84
2023/09/29 06:01:20;;;;;;;;;;;;;;;17.48;nan;100515.13;5043614;28;19963;-84
2023/09/29 06:03:45;;;;;;;;;;;;;;;17.59;nan;100527.09;5035458;28;19973;-85
2023/09/29 06:06:10;;;;;;;;;;;;;;;17.70;nan;100536.41;5059474;28;19924;-85
2023/09/29 06:08:36;;;;;;;;;;;;;;;17.78;nan;100530.88;5038982;28;19920;-85
2023/09/29 06:11:02;;;;;;;;;;;;;;;17.89;nan;100516.16;5036904;28;20095;-85
2023/09/29 06:13:27;;;;;;;;;;;;;;;18.01;nan;100526.06;5035666;28;19931;-85
2023/09/29 06:15:53;;;;;;;;;;;;;;;18.19;nan;100517.50;5046303;28;19923;-85
2023/09/29 06:18:18;;;;;;;;;;;;;;;18.38;nan;100523.91;5048850;28;20420;-85
2023/09/29 06:20:43;;;;;;;;;;;;;;;;;;5057486;28;19916;-84
2023/09/29 06:23:09;;;;;;;;;;;;;;;18.64;nan;100525.81;5054838;28;19916;-85
2023/09/29 06:25:34;;;;;;;;;;;;;;;18.75;nan;100521.69;5051392;28;19917;-86
2023/09/29 06:27:59;;;;;;;;;;;;;;;18.87;nan;100516.56;5054175;28;19927;-85
2023/09/29 06:30:24;;;;;;;;;;;;;;;;;;5025610;28;20349;-86
2023/09/29 06:32:50;;;;;;;;;;;;;;;19.05;nan;100522.13;5037380;28;19951;-86
2023/09/29 06:35:15;;;;;;;;;;;;;;;19.12;nan;100532.03;5052800;28;19920;-85
2023/09/29 06:37:41;;;;;;;;;;;;;;;19.14;nan;100527.25;5055423;28;19951;-85
2023/09/29 06:40:10;;;;;;;;;;;;;;;19.15;nan;100529.75;5035433;28;19916;-85
2023/09/29 06:42:35;;;;;;;;;;;;;;;19.20;nan;100532.63;5055862;28;20004;-84
2023/09/29 06:45:00;;;;;;;;;;;;;;;19.25;nan;100532.00;5034299;28;20360;-85
2023/09/29 06:47:25;;;;;;;;;;;;;;;19.35;nan;100526.19;5044493;28;19978;-84
2023/09/29 06:49:51;;;;;;;;;;;;;;;19.47;nan;100540.59;5040317;28;19916;-84
2023/09/29 06:52:16;;;;;;;;;;;;;;;19.56;nan;100555.44;5059758;28;19959;-84
2023/09/29 06:54:41;;;;;;;;;;;;;;;19.60;nan;100556.69;5058972;28;19947;-83
2023/09/29 06:57:06;;;;;;;;;;;;;;;19.60;nan;100556.69;5042615;28;19912;-85
2023/09/29 06:59:32;;;;;;;;;;;;;;;19.63;nan;100561.63;5059689;28;19912;-85
2023/09/29 07:01:57;;;;;;;;;;;;;;;19.66;nan;100555.00;5056884;28;20011;-85
2023/09/29 07:04:22;;;;;;;;;;;;;;;19.69;nan;100558.13;5035556;28;19921;-85
2023/09/29 07:06:47;;;;;;;;;;;;;;;19.81;nan;100569.03;5042618;28;19969;-85
2023/09/29 07:09:13;;;;;;;;;;;;;;;19.96;nan;100582.19;5047026;28;19913;-86
2023/09/29 07:11:40;;;;;;;;;;;;;;;20.08;nan;100575.13;5031041;28;19928;-86
2023/09/29 07:14:06;;;;;;;;;;;;;;;20.21;nan;100592.19;5027520;28;19966;-85
2023/09/29 07:16:32;;;;;;;;;;;;;;;20.31;nan;100582.66;5016660;28;19936;-86
2023/09/29 07:18:57;;;;;;;;;;;;;;;20.44;nan;100584.44;5015789;28;19917;-87
2023/09/29 07:21:23;;;;;;;;;;;;;;;20.50;nan;100585.47;5038012;28;19912;-87
2023/09/29 07:23:48;;;;;;;;;;;;;;;20.55;nan;100575.72;5028781;28;19940;-85
2023/09/29 07:26:13;;;;;;;;;;;;;;;20.61;nan;100584.78;5026606;28;19920;-86
2023/09/29 07:28:39;;;;;;;;;;;;;;;;;;5069089;28;19955;-85
2023/09/29 07:31:04;;;;;;;;;;;;;;;20.81;nan;100590.03;5027705;28;19913;-87
2023/09/29 07:33:29;;;;;;;;;;;;;;;20.95;nan;100591.59;5051660;28;19921;-87
2023/09/29 07:35:54;;;;;;;;;;;;;;;21.17;nan;100583.13;5043705;28;19913;-86
2023/09/29 07:38:20;;;;;;;;;;;;;;;21.44;nan;100582.91;5048411;28;19912;-87
2023/09/29 07:40:46;;;;;;;;;;;;;;;21.48;nan;100573.38;5023705;28;19913;-87
2023/09/29 07:43:11;;;;;;;;;;;;;;;21.50;nan;100571.25;5016600;28;20432;-87
2023/09/29 07:45:36;;;;;;;;;;;;;;;21.50;nan;100555.09;5033919;28;19913;-87
2023/09/29 07:48:02;;;;;;;;;;;;;;;21.59;nan;100559.16;5033916;28;19928;-87
2023/09/29 07:50:28;;;;;;;;;;;;;;;21.73;nan;100570.59;5051146;28;19959;-87
2023/09/29 07:52:53;;;;;;;;;;;;;;;;;;5051420;28;19917;-87
2023/09/29 07:55:18;;;;;;;;;;;;;;;22.16;nan;100575.88;5048637;28;19982;-87
2023/09/29 07:57:44;;;;;;;;;;;;;;;22.23;nan;100576.63;5019568;28;20294;-87
2023/09/29 08:00:10;;;;;;;;;;;;;;;22.88;nan;100580.47;5015624;28;19917;-86
2023/09/29 08:02:35;;;;;;;;;;;;;;;23.26;nan;100590.03;5033536;28;19913;-84
2023/09/29 08:05:00;;;;;;;;;;;;;;;23.20;nan;100589.09;5017288;28;19920;-85
2023/09/29 08:07:26;;;;;;;;;;;;;;;22.94;nan;100587.63;5014664;28;19959;-86
2023/09/29 08:09:53;;;;;;;;;;;;;;;22.67;nan;100582.66;5015644;28;19913;-86
2023/09/29 08:12:18;;;;;;;;;;;;;;;22.56;nan;100586.13;5032242;28;20356;-85
2023/09/29 08:14:43;;;;;;;;;;;;;;;22.54;nan;100592.81;5053396;28;19913;-85
2023/09/29 08:17:09;;;;;;;;;;;;;;;22.44;nan;100582.59;5037977;28;19916;-85
2023/09/29 08:19:35;;;;;;;;;;;;;;;22.26;nan;100596.91;5024621;28;20267;-85
2023/09/29 08:22:00;;;;;;;;;;;;;;;22.73;nan;100572.81;5027480;28;19913;-86
2023/09/29 08:24:26;;;;;;;;;;;;;;;23.75;nan;100582.53;5033975;28;19920;-86
2023/09/29 08:26:51;;;;;;;;;;;;;;;24.65;nan;100605.38;5018689;28;19920;-85
2023/09/29 08:29:16;;;;;;;;;;;;;;;25.26;nan;100613.72;5046786;28;20031;-85
2023/09/29 08:31:45;;;;;;;;;;;;;;;25.91;nan;100596.00;5064292;28;19971;-86
2023/09/29 08:34:10;;;;;;;;;;;;;;;26.81;nan;100631.66;5053152;28;19991;-86
2023/09/29 08:36:35;;;;;;;;;;;;;;;27.36;nan;100618.84;5018121;28;20020;-86
2023/09/29 08:39:01;;;;;;;;;;;;;;;27.76;nan;100617.44;5044343;28;19948;-86
2023/09/29 08:41:27;;;;;;;;;;;;;;;28.23;nan;100623.94;5030068;28;19962;-85
2023/09/29 08:43:52;;;;;;;;;;;;;;;28.33;nan;100627.50;5055486;28;19913;-86
2023/09/29 08:46:18;;;;;;;;;;;;;;;28.69;nan;100629.50;5036827;28;20333;-85
2023/09/29 08:48:45;;;;;;;;;;;;;;;28.95;nan;100630.34;5045967;28;19966;-86
2023/09/29 08:51:12;;;;;;;;;;;;;;;29.26;nan;100630.34;5018771;28;20290;-87
2023/09/29 08:53:39;;;;;;;;;;;;;;;29.36;nan;100638.50;5017632;28;19920;-86
2023/09/29 08:56:11;;;;;;;;;;;;;;;29.67;nan;100625.66;5044124;28;20354;-86
2023/09/29 08:58:36;;;;;;;;;;;;;;;29.72;nan;100630.28;5028421;28;20021;-86
2023/09/29 09:01:01;;;;;;;;;;;;;;;29.87;nan;100632.13;5033232;28;19956;-86
2023/09/29 09:03:27;;;;;;;;;;;;;;;30.05;nan;100639.72;5035307;28;20387;-86
2023/09/29 09:05:55;;;;;;;;;;;;;;;30.08;nan;100641.88;5029594;28;19913;-86
2023/09/29 09:08:20;;;;;;;;;;;;;;;30.06;nan;100649.53;5023989;28;19920;-86
2023/09/29 09:10:45;;;;;;;;;;;;;;;30.47;nan;100643.91;5046800;28;19908;-87
2023/09/29 09:13:11;;;;;;;;;;;;;;;30.81;nan;100645.84;5044943;28;19923;-86
2023/09/29 09:15:36;;;;;;;;;;;;;;;31.29;nan;100651.50;5038875;28;19917;-87
2023/09/29 09:18:01;;;;;;;;;;;;;;;31.44;nan;100643.19;5033470;28;19913;-87
2023/09/29 09:20:27;;;;;;;;;;;;;;;31.12;nan;100641.00;5037116;28;19913;-87
2023/09/29 09:22:57;;;;;;;;;;;;;;;30.97;nan;100639.22;5040482;28;19913;-87
2023/09/29 09:25:35;;;;;;;;;;;;;;;30.95;nan;100641.41;5042758;28;20018;-86
2023/09/29 09:28:00;;;;;;;;;;;;;;;30.81;nan;100640.41;5017988;28;19913;-86
2023/09/29 09:30:25;;;;;;;;;;;;;;;31.13;nan;100650.00;5031209;28;19920;-86
2023/09/29 09:32:51;;;;;;;;;;;;;;;31.18;nan;100644.47;5022702;28;19921;-86
2023/09/29 09:35:26;;;;;;;;;;;;;;;31.50;nan;100658.41;5014996;28;20310;-87
2023/09/29 09:37:51;;;;;;;;;;;;;;;31.63;nan;100646.00;5033670;28;19917;-87
2023/09/29 09:40:17;;;;;;;;;;;;;;;31.52;nan;100650.75;5032791;28;20328;-87
2023/09/29 09:42:42;;;;;;;;;;;;;;;31.74;nan;100647.50;5015387;28;20418;-87
2023/09/29 09:45:08;;;;;;;;;;;;;;;31.60;nan;100641.09;5016003;28;20011;-87
2023/09/29 09:47:34;;;;;;;;;;;;;;;31.83;nan;100634.00;5059682;28;19913;-87
2023/09/29 09:50:01;;;;;;;;;;;;;;;32.31;nan;100642.16;5046426;28;20009;-87
2023/09/29 09:52:30;;;;;;;;;;;;;;;32.74;nan;100635.84;5049140;28;19917;-86
2023/09/29 09:55:02;;;;;;;;;;;;;;;33.20;nan;100633.19;5015071;28;19919;-87
2023/09/29 09:57:30;;;;;;;;;;;;;;;33.00;nan;100617.06;5032230;28;20350;-87
2023/09/29 10:00:00;;;;;;;;;;;;;;;32.99;nan;100637.34;5015137;28;19913;-88
2023/09/29 10:02:26;;;;;;;;;;;;;;;32.59;nan;100636.88;5032152;28;19921;-86
2023/09/29 10:04:52;;;;;;;;;;;;;;;32.81;nan;100629.97;5015241;28;19913;-87
2023/09/29 10:07:17;;;;;;;;;;;;;;;32.34;nan;100619.69;5032777;28;19996;-86
2023/09/29 10:09:46;;;;;;;;;;;;;;;31.92;nan;100621.31;5015043;28;20417;-87
2023/09/29 10:12:25;;;;;;;;;;;;;;;31.37;nan;100626.28;5040008;28;20362;-87
2023/09/29 10:14:52;;;;;;;;;;;;;;;30.40;nan;100618.84;5032809;28;19920;-88
2023/09/29 10:17:17;;;;;;;;;;;;;;;30.32;nan;100622.16;5032413;28;19913;-87
2023/09/29 10:19:44;;;;;;;;;;;;;;;30.24;nan;100609.88;5015013;28;20333;-87
2023/09/29 10:22:20;;;;;;;;;;;;;;;30.30;nan;100614.25;5032057;28;19936;-87
2023/09/29 10:24:46;;;;;;;;;;;;;;;30.49;nan;100595.31;5046649;28;19913;-87
2023/09/29 10:27:13;;;;;;;;;;;;;;;30.66;nan;100605.84;5032955;28;20287;-87
2023/09/29 10:29:39;;;;;;;;;;;;;;;30.68;nan;100609.09;5047403;28;20352;-87
2023/09/29 10:32:16;;;;;;;;;;;;;;;30.66;nan;100605.84;5049310;28;20016;-87
2023/09/29 10:34:42;;;;;;;;;;;;;;;31.55;nan;100616.56;5033115;28;20393;-87
2023/09/29 10:37:09;;;;;;;;;;;;;;;32.57;nan;100606.25;5032232;28;19959;-87
2023/09/29 10:39:35;;;;;;;;;;;;;;;33.33;nan;100619.81;5014950;28;19913;-87
2023/09/29 10:42:22;;;;;;;;;;;;;;;34.17;nan;100626.94;5042309;28;19913;-85
2023/09/29 10:44:56;;;;;;;;;;;;;;;34.79;nan;100626.34;5031167;28;20436;-87
2023/09/29 10:47:33;;;;;;;;;;;;;;;34.68;nan;100621.13;5054494;28;19921;-85
2023/09/29 10:50:06;;;;;;;;;;;;;;;34.03;nan;100614.00;5044765;28;19971;-85
2023/09/29 10:52:31;;;;;;;;;;;;;;;33.37;nan;100616.16;5034962;28;19921;-85
2023/09/29 10:54:58;;;;;;;;;;;;;;;32.33;nan;100606.31;5035975;28;19913;-85
2023/09/29 10:57:28;;;;;;;;;;;;;;;31.27;nan;100620.91;5053961;28;20355;-85
2023/09/29 10:59:59;;;;;;;;;;;;;;;30.25;nan;100597.91;5054114;28;20393;-86
2023/09/29 11:02:29;;;;;;;;;;;;;;;29.92;nan;100610.34;5053505;28;19966;-85
2023/09/29 11:04:54;;;;;;;;;;;;;;;29.94;nan;100602.66;5054659;28;19912;-86
2023/09/29 11:07:20;;;;;;;;;;;;;;;29.47;nan;100591.09;5051845;28;20278;-85
2023/09/29 11:09:45;;;;;;;;;;;;;;;29.17;nan;100592.78;5038690;28;20003;-85
2023/09/29 11:12:19;;;;;;;;;;;;;;;29.27;nan;100572.06;5027534;28;19917;-85
2023/09/29 11:14:44;;;;;;;;;;;;;;;31.17;nan;100602.69;5045382;28;19913;-85
2023/09/29 11:17:10;;;;;;;;;;;;;;;32.78;nan;100596.59;5032658;28;19936;-85
2023/09/29 11:19:36;;;;;;;;;;;;;;;33.98;nan;100592.19;5053510;28;19924;-85
2023/09/29 11:22:03;;;;;;;;;;;;;;;34.88;nan;100592.31;5023781;28;19917;-86
2023/09/29 11:24:38;;;;;;;;;;;;;;;35.33;nan;100610.72;5041798;28;19920;-85
2023/09/29 11:27:05;;;;;;;;;;;;;;;35.20;nan;100601.41;5030144;28;19920;-85
2023/09/29 11:29:31;;;;;;;;;;;;;;;34.95;nan;100596.56;5042944;28;19952;-85
2023/09/29 11:31:57;;;;;;;;;;;;;;;34.46;nan;100588.13;5044072;28;19956;-85
2023/09/29 11:34:23;;;;;;;;;;;;;;;33.95;nan;100592.81;5048238;28;20083;-85
2023/09/29 11:36:48;;;;;;;;;;;;;;;33.36;nan;100576.13;5036366;28;19964;-85
2023/09/29 11:39:18;;;;;;;;;;;;;;;33.14;nan;100582.31;5017862;28;19959;-85
2023/09/29 11:41:46;;;;;;;;;;;;;;;32.73;nan;100591.22;5014324;28;20329;-86
2023/09/29 11:44:12;;;;;;;;;;;;;;;32.36;nan;100576.41;5037640;28;20295;-85
2023/09/29 11:46:37;;;;;;;;;;;;;;;31.87;nan;100580.38;5032742;28;19913;-85
2023/09/29 11:49:03;;;;;;;;;;;;;;;31.58;nan;100591.38;5049788;28;20330;-85
2023/09/29 11:51:28;;;;;;;;;;;;;;;31.14;nan;100577.88;5049438;28;19929;-85
2023/09/29 11:53:54;;;;;;;;;;;;;;;30.86;nan;100580.31;5035076;28;19944;-85
2023/09/29 11:56:20;;;;;;;;;;;;;;;30.90;nan;100573.19;5050195;28;19912;-85
2023/09/29 11:58:45;;;;;;;;;;;;;;;30.88;nan;100580.84;5046543;28;19917;-85
2023/09/29 12:01:10;;;;;;;;;;;;;;;30.79;nan;100582.53;5037598;28;20137;-85
2023/09/29 12:03:36;;;;;;;0.00;0.00;;;;;;;30.47;nan;100575.69;5050616;28;20406;-85
2023/09/29 12:06:02;;;;;;;0.00;0.00;;;;;;;30.02;nan;100563.94;5031033;28;20068;-85
2023/09/29 12:08:28;;;;;;;;;;;;;;;29.70;nan;100578.81;5051484;28;20021;-85
2023/09/29 12:10:53;;;;;;;;;;;;;;;29.60;nan;100568.72;5024158;28;20374;-85
2023/09/29 12:13:18;;;;;;;;;;;;;;;29.29;nan;100562.53;5030425;28;19967;-85
2023/09/29 12:15:44;;;;;;;;;;;;;;;28.94;nan;100560.66;5030326;28;19919;-85
2023/09/29 12:18:10;;;;;;;;;;;;;;;28.56;nan;100569.09;5059487;28;19912;-85
2023/09/29 12:20:35;;;;;;;;;;;;;;;28.20;nan;100561.91;5045362;28;19912;-84
2023/09/29 12:23:01;;;;;;;;;;;;;;;27.90;nan;100568.91;5054445;28;20055;-85
2023/09/29 12:25:27;;;;;;;;;;;;;;;27.68;nan;100561.72;5052136;28;19966;-85
2023/09/29 12:27:52;;;;;;;;;;;;;;;27.50;nan;100559.44;5060083;28;19928;-84
2023/09/29 12:30:18;;;;;;;;;;;;;;;27.39;nan;100568.63;5046942;28;19917;-85
2023/09/29 12:32:44;;;;;;;;;;;;;;;27.44;nan;100576.81;5040990;28;19959;-84
2023/09/29 12:35:12;;;;;;;;;;;;;;;27.58;nan;100574.41;5058342;28;19917;-84
2023/09/29 12:37:38;;;;;;;;;;;;;;;27.71;nan;100572.06;5056849;28;19923;-84
2023/09/29 12:40:04;;;;;;;;;;;;;;;27.81;nan;100582.13;5042159;28;19917;-84
2023/09/29 12:42:29;;;;;;;;;;;;;;;27.91;nan;100581.41;5056331;28;19913;-84
2023/09/29 12:44:55;;;;;;;;;;;;;;;27.99;nan;100572.75;5044890;28;19913;-84
2023/09/29 12:47:20;;;;;;;;;;;;;;;27.89;nan;100583.59;5055587;28;19943;-84
2023/09/29 12:49:46;;;;;;;;;;;;;;;27.74;nan;100581.56;5055587;28;19913;-84
2023/09/29 12:52:13;;;;;;;;;;;;;;;27.62;nan;100584.50;5045079;28;19928;-84
2023/09/29 12:54:39;;;;;;;;;;;;;;;27.50;nan;100571.13;5048845;28;19921;-84
2023/09/29 12:57:04;;;;;;;;;;;;;;;27.36;nan;100590.88;5028549;28;19924;-85
2023/09/29 12:59:38;;;;;;;;;;;;;;;27.20;nan;100588.06;5047379;28;19967;-84
2023/09/29 13:02:04;;;;;;;;;;;;;;;27.02;nan;100597.38;5057178;28;19919;-84